Time;durP1;ratioP1;P1;durP2;ratioP2;P2;SDS_P1;SDS_P2;PMS_P1;PMS_P2;Temp;Humidity;BMP_temperature;BMP_pressure;BME280_temperature;BME280_humidity;BME280_pressure;Samples;Min_cycle;Max_cycle;Signal;HPM_P1;HPM_P2
2024/01/30 00:01:17;;;;;;;8.63;4.90;;;;;;;7.36;100.00;102442.34;5106041;27;20027;-87
2024/01/30 00:03:42;;;;;;;11.60;5.30;;;;;;;7.31;100.00;102445.50;5098933;27;20035;-87
2024/01/30 00:06:08;;;;;;;10.02;5.45;;;;;;;7.28;100.00;102428.75;5116066;27;20394;-87
2024/01/30 00:08:36;;;;;;;9.90;5.07;;;;;;;7.28;100.00;102435.03;5115866;27;20081;-88
2024/01/30 00:11:02;;;;;;;14.30;5.18;;;;;;;7.28;100.00;102432.31;5115649;27;20470;-88
2024/01/30 00:13:27;;;;;;;9.20;5.10;;;;;;;7.29;100.00;102441.25;5099093;27;20060;-87
2024/01/30 00:15:52;;;;;;;10.32;5.35;;;;;;;7.32;100.00;102439.13;5100623;28;20499;-88
2024/01/30 00:18:18;;;;;;;8.93;5.23;;;;;;;7.29;100.00;102443.97;5095332;28;20028;-89
2024/01/30 00:20:44;;;;;;;9.80;5.20;;;;;;;7.27;100.00;102440.59;5062390;27;20077;-88
2024/01/30 00:23:09;;;;;;;7.78;5.18;;;;;;;7.24;100.00;102430.94;5095613;28;20152;-88
2024/01/30 00:25:35;;;;;;;8.73;4.90;;;;;;;7.22;100.00;102430.25;5095965;28;20024;-88
2024/01/30 00:28:01;;;;;;;9.77;5.68;;;;;;;7.20;100.00;102430.41;5078903;28;20416;-88
2024/01/30 00:30:28;;;;;;;9.25;5.30;;;;;;;7.20;100.00;102433.09;5095348;28;20475;-87
2024/01/30 00:32:57;;;;;;;8.93;5.10;;;;;;;7.16;100.00;102422.75;5095696;28;20023;-87
2024/01/30 00:35:22;;;;;;;7.38;5.18;;;;;;;7.14;100.00;102430.16;5095651;28;20032;-87
2024/01/30 00:37:51;;;;;;;7.60;5.03;;;;;;;7.16;100.00;102433.53;5078979;28;20490;-87
2024/01/30 00:40:20;;;;;;;12.63;4.97;;;;;;;7.12;100.00;102421.38;5079412;28;20027;-87
2024/01/30 00:42:45;;;;;;;10.43;5.38;;;;;;;7.14;100.00;102422.06;5095965;28;20020;-87
2024/01/30 00:45:16;;;;;;;11.93;5.77;;;;;;;7.12;100.00;102424.91;5095787;28;20173;-86
2024/01/30 00:47:41;;;;;;;7.88;4.82;;;;;;;7.12;100.00;102424.91;5113986;28;20023;-87
2024/01/30 00:50:07;;;;;;;8.43;5.13;;;;;;;7.11;100.00;102417.81;5096033;28;20047;-87
2024/01/30 00:52:33;;;;;;;9.40;5.35;;;;;;;7.11;100.00;102419.69;5095397;28;20044;-88
2024/01/30 00:54:59;;;;;;;8.50;4.87;;;;;;;7.09;100.00;102414.44;5095442;28;20071;-87
2024/01/30 00:57:24;;;;;;;9.35;5.40;;;;;;;7.08;100.00;102417.28;5095183;28;20395;-87
2024/01/30 00:59:50;;;;;;;11.83;5.27;;;;;;;7.06;100.00;102419.28;5095063;28;20027;-87
2024/01/30 01:02:17;;;;;;;8.05;4.95;;;;;;;7.07;100.00;102411.06;5113303;28;20432;-87
2024/01/30 01:04:43;;;;;;;9.20;5.50;;;;;;;7.08;100.00;102411.88;5095521;28;20023;-87
2024/01/30 01:07:09;;;;;;;8.60;4.70;;;;;;;7.06;100.00;102406.66;5094933;28;20098;-87
2024/01/30 01:09:35;;;;;;;6.97;4.50;;;;;;;7.11;100.00;102420.50;5113186;28;20495;-87
2024/01/30 01:12:01;;;;;;;7.70;4.87;;;;;;;7.07;100.00;102418.28;5113678;28;20084;-87
2024/01/30 01:14:26;;;;;;;11.35;5.15;;;;;;;7.08;100.00;102415.44;5095562;28;20055;-87
2024/01/30 01:16:54;;;;;;;8.95;5.38;;;;;;;7.03;100.00;102410.50;5078190;28;20030;-88
2024/01/30 01:19:20;;;;;;;8.48;4.88;;;;;;;7.05;100.00;102404.09;5061702;28;20042;-87
2024/01/30 01:21:45;;;;;;;11.33;5.17;;;;;;;7.04;100.00;102405.94;5078220;28;20028;-88
2024/01/30 01:24:11;;;;;;;7.43;5.10;;;;;;;7.10;100.00;102396.38;5081884;28;20036;-88
2024/01/30 01:26:36;;;;;;;9.00;4.85;;;;;;;7.08;100.00;102393.84;5098772;28;20020;-87
2024/01/30 01:29:04;;;;;;;11.03;4.77;;;;;;;7.12;100.00;102395.22;5107165;27;20027;-88
2024/01/30 01:31:32;;;;;;;9.23;5.07;;;;;;;7.15;100.00;102396.78;5098287;28;20035;-88
2024/01/30 01:34:02;;;;;;;6.47;4.40;;;;;;;7.18;100.00;102399.16;5081845;28;20097;-89
2024/01/30 01:36:28;;;;;;;9.33;5.20;;;;;;;7.20;100.00;102399.84;5065691;28;20502;-89
2024/01/30 01:38:53;;;;;;;7.28;4.93;;;;;;;7.24;100.00;102397.69;5117028;28;20027;-87
2024/01/30 01:41:18;;;;;;;7.03;4.55;;;;;;;7.29;100.00;102398.06;5099091;28;20032;-89
2024/01/30 01:43:46;;;;;;;7.83;4.73;;;;;;;7.26;100.00;102391.13;5081247;28;20031;-88
2024/01/30 01:46:12;;;;;;;8.60;4.90;;;;;;;7.34;100.00;102393.06;5081636;28;20084;-89
2024/01/30 01:48:39;;;;;;;7.43;4.87;;;;;;;7.32;100.00;102386.94;5081459;28;20032;-88
2024/01/30 01:51:08;;;;;;;9.30;4.68;;;;;;;7.34;100.00;102382.25;5098087;28;20134;-87
2024/01/30 01:53:34;;;;;;;9.98;4.88;;;;;;;7.34;100.00;102384.97;5081912;28;20028;-88
2024/01/30 01:56:00;;;;;;;7.90;4.77;;;;;;;7.33;100.00;102386.78;5064283;28;20024;-88
2024/01/30 01:58:28;;;;;;;8.63;4.93;;;;;;;7.33;100.00;102391.34;5098183;28;20031;-87
2024/01/30 02:00:56;;;;;;;7.65;4.43;;;;;;;7.35;100.00;102383.94;5108850;27;20127;-88
2024/01/30 02:03:23;;;;;;;10.57;5.10;;;;;;;7.31;100.00;102377.19;5087017;28;20590;-87
2024/01/30 02:05:51;;;;;;;8.75;4.78;;;;;;;7.34;100.00;102375.00;5081552;28;20032;-87
2024/01/30 02:08:16;;;;;;;9.85;4.78;;;;;;;7.34;100.00;102377.69;5098227;28;20027;-87
2024/01/30 02:10:42;;;;;;;10.50;4.80;;;;;;;7.34;100.00;102375.00;5081957;28;20516;-87
2024/01/30 02:13:07;;;;;;;6.90;4.27;;;;;;;7.33;100.00;102372.47;5098523;28;20118;-87
2024/01/30 02:15:35;;;;;;;7.50;4.70;;;;;;;7.35;100.00;102376.72;5098171;28;20288;-87
2024/01/30 02:18:01;;;;;;;8.20;4.70;;;;;;;7.36;100.00;102367.56;5098343;28;20036;-87
2024/01/30 02:20:31;;;;;;;9.67;5.20;;;;;;;7.41;100.00;102379.75;5098146;28;20054;-87
2024/01/30 02:23:01;;;;;;;6.50;4.47;;;;;;;7.48;100.00;102375.44;5098270;28;20115;-87
2024/01/30 02:25:43;;;;;;;8.43;4.57;;;;;;;7.49;100.00;102372.56;5116714;28;20115;-87
2024/01/30 02:28:12;;;;;;;6.45;4.30;;;;;;;7.53;100.00;102379.38;5116440;28;20486;-87
2024/01/30 02:30:37;;;;;;;6.97;4.67;;;;;;;7.53;100.00;102373.97;5098356;28;20054;-87
2024/01/30 02:33:05;;;;;;;8.02;4.82;;;;;;;7.54;100.00;102370.28;5097381;28;20471;-87
2024/01/30 02:35:31;;;;;;;9.07;4.65;;;;;;;7.59;100.00;102380.59;5081502;28;20039;-86
2024/01/30 02:37:57;;;;;;;6.80;4.70;;;;;;;7.58;100.00;102364.53;5116574;28;20391;-87
2024/01/30 02:40:22;;;;;;;6.43;4.25;;;;;;;7.60;100.00;102357.13;5098086;28;20325;-87
2024/01/30 02:42:48;;;;;;;10.10;4.90;;;;;;;7.57;100.00;102363.69;5098244;28;20031;-87
2024/01/30 02:45:16;;;;;;;7.13;4.60;;;;;;;7.57;100.00;102358.28;5080504;28;20027;-87
2024/01/30 02:47:41;;;;;;;6.82;4.50;;;;;;;7.63;100.00;102368.47;5097387;28;20138;-88
2024/01/30 02:50:07;;;;;;;8.43;4.35;;;;;;;7.62;100.00;102377.56;5081078;28;20160;-87
2024/01/30 02:52:33;;;;;;;7.07;4.20;;;;;;;7.65;100.00;102371.00;5093925;28;20051;-87
2024/01/30 02:54:58;;;;;;;7.33;4.73;;;;;;;7.65;100.00;102363.75;5077548;28;20047;-87
2024/01/30 02:57:24;;;;;;;7.65;4.72;;;;;;;7.69;100.00;102364.25;5094442;28;20274;-87
2024/01/30 02:59:49;;;;;;;7.80;4.60;;;;;;;7.66;100.00;102357.34;5112482;28;20040;-87
2024/01/30 03:02:15;;;;;;;10.73;4.72;;;;;;;7.64;100.00;102359.34;5097834;28;20028;-87
2024/01/30 03:04:43;;;;;;;8.38;4.05;;;;;;;7.63;100.00;102356.81;5097288;28;20080;-87
2024/01/30 03:07:09;;;;;;;7.53;4.10;;;;;;;7.60;100.00;102360.66;5097077;28;20035;-87
2024/01/30 03:09:36;;;;;;;10.80;4.47;;;;;;;7.63;100.00;102352.25;5097017;28;20076;-87
2024/01/30 03:12:04;;;;;;;7.07;4.30;;;;;;;7.57;100.00;102346.63;5096995;28;20023;-88
2024/01/30 03:14:32;;;;;;;9.85;4.68;;;;;;;7.52;100.00;102339.84;5097659;28;20063;-87
2024/01/30 03:16:58;;;;;;;6.97;4.40;;;;;;;7.47;100.00;102331.38;5097466;28;20046;-87
2024/01/30 03:19:23;;;;;;;6.60;4.65;;;;;;;7.44;100.00;102334.41;5115623;28;20476;-88
2024/01/30 03:21:49;;;;;;;8.80;4.50;;;;;;;7.44;100.00;102337.09;5096829;28;20035;-87
2024/01/30 03:24:15;;;;;;;10.10;4.32;;;;;;;7.46;100.00;102336.94;5115305;28;20056;-87
2024/01/30 03:26:43;;;;;;;9.87;5.00;;;;;;;7.46;100.00;102335.09;5096993;28;20468;-87
2024/01/30 03:29:08;;;;;;;7.95;4.22;;;;;;;7.53;100.00;102336.16;5097581;28;20031;-88
2024/01/30 03:31:34;;;;;;;8.63;4.37;;;;;;;7.50;100.00;102333.78;5096844;28;20093;-88
2024/01/30 03:33:59;;;;;;;8.50;4.60;;;;;;;7.56;100.00;102335.00;5096562;28;20024;-88
2024/01/30 03:36:25;;;;;;;8.93;4.43;;;;;;;7.56;100.00;102335.00;5079645;28;20027;-87
2024/01/30 03:38:50;;;;;;;7.07;3.67;;;;;;;7.55;100.00;102328.72;5114855;28;20031;-88
2024/01/30 03:41:16;;;;;;;8.97;4.60;;;;;;;7.59;100.00;102336.50;5114751;28;20031;-87
2024/01/30 03:43:41;;;;;;;8.43;4.20;;;;;;;7.59;100.00;102334.69;5115302;28;20776;-87
2024/01/30 03:46:07;;;;;;;8.47;4.07;;;;;;;7.59;100.00;102333.81;5095992;28;20160;-87
2024/01/30 03:48:32;;;;;;;9.27;4.45;;;;;;;7.66;100.00;102337.56;5096672;28;20395;-87
2024/01/30 03:50:58;;;;;;;6.50;3.80;;;;;;;7.68;100.00;102343.69;5096432;28;20036;-87
2024/01/30 03:53:23;;;;;;;8.17;4.47;;;;;;;7.69;100.00;102343.50;5093110;28;20024;-87
2024/01/30 03:55:49;;;;;;;7.65;4.35;;;;;;;7.67;100.00;102341.97;5093501;28;20035;-87
2024/01/30 03:58:14;;;;;;;6.93;4.20;;;;;;;7.66;100.00;102345.66;5079755;28;20031;-87
2024/01/30 04:00:40;;;;;;;9.57;4.50;;;;;;;7.66;100.00;102346.53;5101436;27;20072;-87
2024/01/30 04:03:17;;;;;;;6.55;4.53;;;;;;;7.67;100.00;102337.41;5106251;28;20076;-87
2024/01/30 04:05:45;;;;;;;7.13;4.47;;;;;;;7.73;100.00;102347.56;5095988;28;20027;-87
2024/01/30 04:08:10;;;;;;;7.00;4.47;;;;;;;7.75;100.00;102339.34;5096015;28;20119;-88
2024/01/30 04:10:36;;;;;;;7.90;4.45;;;;;;;7.80;100.00;102350.50;5096594;28;20059;-88
2024/01/30 04:13:01;;;;;;;7.13;4.27;;;;;;;7.82;100.00;102347.63;5095848;28;20395;-88
2024/01/30 04:15:27;;;;;;;7.37;4.50;;;;;;;7.80;100.00;102341.56;5079377;28;20122;-86
2024/01/30 04:17:53;;;;;;;7.00;4.55;;;;;;;7.82;100.00;102336.81;5096186;28;20028;-87
2024/01/30 04:20:18;;;;;;;6.93;4.23;;;;;;;7.81;100.00;102335.97;5096209;28;20463;-87
2024/01/30 04:22:45;;;;;;;10.40;4.47;;;;;;;7.85;100.00;102333.78;5079199;28;20412;-86
2024/01/30 04:25:13;;;;;;;8.48;4.60;;;;;;;7.84;100.00;102330.25;5095593;28;20456;-86
2024/01/30 04:27:39;;;;;;;6.40;4.43;;;;;;;7.88;100.00;102328.06;5091550;28;20031;-87
2024/01/30 04:30:08;;;;;;;8.50;4.67;;;;;;;7.90;100.00;102320.66;5115051;27;20430;-87
2024/01/30 04:32:33;;;;;;;7.78;4.53;;;;;;;7.94;100.00;102321.16;5116313;27;20523;-87
2024/01/30 04:34:58;;;;;;;9.20;4.00;;;;;;;7.99;100.00;102329.66;5099209;28;20122;-87
2024/01/30 04:37:27;;;;;;;8.90;4.20;;;;;;;8.02;100.00;102322.06;5097036;28;20028;-87
2024/01/30 04:39:52;;;;;;;8.05;4.20;;;;;;;8.00;100.00;102315.97;5095466;28;20383;-87
2024/01/30 04:42:18;;;;;;;8.20;4.50;;;;;;;8.02;100.00;102318.50;5096188;28;20034;-87
2024/01/30 04:44:43;;;;;;;6.60;4.25;;;;;;;8.10;100.00;102315.81;5095859;28;20024;-88
2024/01/30 04:47:11;;;;;;;6.10;4.47;;;;;;;8.10;100.00;102307.72;5096080;28;20420;-87
2024/01/30 04:49:39;;;;;;;7.18;4.28;;;;;;;8.08;100.00;102294.38;5096130;28;20027;-88
2024/01/30 04:52:04;;;;;;;5.63;3.80;;;;;;;8.12;100.00;102300.31;5113450;28;20055;-87
2024/01/30 04:54:30;;;;;;;7.57;4.50;;;;;;;8.16;100.00;102311.63;5078487;28;20148;-87
2024/01/30 04:56:55;;;;;;;6.53;3.80;;;;;;;8.17;100.00;102311.47;5081060;28;20031;-88
2024/01/30 04:59:20;;;;;;;8.90;4.87;;;;;;;8.15;100.00;102316.19;5082784;28;20081;-87
2024/01/30 05:01:46;;;;;;;7.50;4.20;;;;;;;8.14;100.00;102310.97;5099583;28;20118;-86
2024/01/30 05:04:14;;;;;;;7.83;4.10;;;;;;;8.16;100.00;102314.34;5117645;28;20111;-88
2024/01/30 05:06:40;;;;;;;8.40;4.03;;;;;;;8.13;100.00;102296.56;5099468;28;20371;-87
2024/01/30 05:09:05;;;;;;;7.38;4.50;;;;;;;8.16;100.00;102312.47;5082719;28;20118;-87
2024/01/30 05:11:33;;;;;;;9.83;4.53;;;;;;;8.12;100.00;102305.72;5099420;28;20550;-88
2024/01/30 05:13:58;;;;;;;8.00;4.30;;;;;;;8.12;100.00;102304.84;5082716;28;20088;-87
2024/01/30 05:16:24;;;;;;;9.27;4.20;;;;;;;8.13;100.00;102306.56;5099327;28;20114;-87
2024/01/30 05:18:52;;;;;;;6.63;3.70;;;;;;;8.15;100.00;102312.63;5117541;28;20074;-87
2024/01/30 05:21:17;;;;;;;8.02;4.57;;;;;;;8.12;100.00;102315.66;5082806;28;20125;-87
2024/01/30 05:23:43;;;;;;;6.87;4.10;;;;;;;8.10;100.00;102306.88;5099642;28;20035;-87
2024/01/30 05:26:08;;;;;;;10.65;4.63;;;;;;;8.06;100.00;102306.34;5098841;28;20034;-88
2024/01/30 05:28:33;;;;;;;9.07;4.35;;;;;;;8.12;100.00;102307.56;5099404;28;20039;-87
2024/01/30 05:30:59;;;;;;;8.70;4.33;;;;;;;8.14;100.00;102308.25;5099264;28;20067;-87
2024/01/30 05:33:25;;;;;;;10.60;4.30;;;;;;;8.23;100.00;102315.38;5098972;28;20089;-87
2024/01/30 05:35:54;;;;;;;5.85;4.18;;;;;;;8.19;100.00;102309.47;5098956;28;20019;-87
2024/01/30 05:38:19;;;;;;;7.18;4.25;;;;;;;8.23;100.00;102308.09;5082343;28;20062;-87
2024/01/30 05:40:45;;;;;;;6.20;4.28;;;;;;;8.29;100.00;102306.59;5098920;28;20051;-87
2024/01/30 05:43:10;;;;;;;10.23;4.30;;;;;;;8.31;100.00;102298.31;5099461;28;20043;-86
2024/01/30 05:45:36;;;;;;;9.88;4.40;;;;;;;8.37;100.00;102305.78;5098666;28;20414;-88
2024/01/30 05:48:01;;;;;;;8.35;4.55;;;;;;;8.36;100.00;102312.22;5098631;28;20467;-87
2024/01/30 05:50:27;;;;;;;7.90;4.30;;;;;;;8.41;100.00;102305.31;5098750;28;20049;-87
2024/01/30 05:52:53;;;;;;;7.45;4.80;;;;;;;8.46;100.00;102301.25;5099138;28;20052;-87
2024/01/30 05:55:18;;;;;;;10.13;4.23;;;;;;;8.52;100.00;102312.28;5098519;28;20030;-87
2024/01/30 05:57:46;;;;;;;8.90;4.83;;;;;;;8.51;100.00;102307.03;5098595;28;20027;-87
2024/01/30 06:00:12;;;;;;;9.18;4.40;;;;;;;8.55;100.00;102309.25;5098700;28;20772;-87
2024/01/30 06:02:38;;;;;;;6.40;4.25;;;;;;;8.59;100.00;102310.59;5098869;28;20046;-87
2024/01/30 06:05:03;;;;;;;10.07;4.10;;;;;;;8.63;100.00;102315.69;5098580;28;20084;-88
2024/01/30 06:07:29;;;;;;;7.93;4.15;;;;;;;8.57;100.00;102309.91;5064723;28;20035;-87
2024/01/30 06:09:54;;;;;;;10.60;4.43;;;;;;;8.59;100.00;102307.91;5098133;28;20114;-87
2024/01/30 06:12:28;;;;;;;9.83;4.83;;;;;;;8.59;100.00;102307.03;5098512;28;20456;-87
2024/01/30 06:14:56;;;;;;;5.63;4.07;;;;;;;8.62;100.00;102306.69;5098418;28;20031;-87
2024/01/30 06:17:22;;;;;;;9.55;4.25;;;;;;;8.64;100.00;102318.22;5098519;28;20031;-87
2024/01/30 06:19:50;;;;;;;6.43;4.07;;;;;;;8.60;100.00;102304.16;5081274;28;20042;-88
2024/01/30 06:22:16;;;;;;;8.07;4.00;;;;;;;8.65;100.00;102306.41;5116451;28;20031;-88
2024/01/30 06:27:32;;;;;;;8.57;4.00;;;;;;;8.68;100.00;102321.44;5116963;28;20051;-90
2024/01/30 06:30:14;;;;;;;6.63;4.00;;;;;;;8.73;100.00;102330.75;5081114;28;20080;-93
2024/01/30 06:32:40;;;;;;;9.27;4.50;;;;;;;8.71;100.00;102321.97;5116203;28;20032;-88
2024/01/30 06:35:06;;;;;;;8.87;4.30;;;;;;;8.70;100.00;102336.50;5080981;28;20073;-87
2024/01/30 06:37:31;;;;;;;10.77;4.68;;;;;;;8.68;100.00;102332.25;5080620;28;20399;-89
2024/01/30 06:39:57;;;;;;;7.67;4.53;;;;;;;8.70;100.00;102335.66;5097583;28;20031;-88
2024/01/30 06:42:25;;;;;;;6.97;3.88;;;;;;;8.69;100.00;102326.66;5097505;28;20019;-88
2024/01/30 06:44:51;;;;;;;6.72;4.28;;;;;;;8.71;100.00;102335.47;5097269;28;20089;-86
2024/01/30 06:47:16;;;;;;;7.50;4.30;;;;;;;8.71;100.00;102330.06;5097113;28;20388;-88
2024/01/30 06:50:03;;;;;;;8.60;4.50;;;;;;;8.72;100.00;102333.63;5080348;28;20032;-88
2024/01/30 06:52:52;;;;;;;8.18;4.20;;;;;;;8.74;100.00;102326.16;5097303;28;20040;-89
2024/01/30 06:55:18;;;;;;;8.43;4.40;;;;;;;8.73;100.00;102324.50;5097693;28;20023;-88
2024/01/30 06:57:46;;;;;;;7.75;4.55;;;;;;;8.74;100.00;102343.28;5116232;27;20039;-87
2024/01/30 07:00:13;;;;;;;9.73;4.28;;;;;;;8.75;100.00;102358.50;5097190;28;20039;-86
2024/01/30 07:02:39;;;;;;;6.35;4.10;;;;;;;8.74;100.00;102358.63;5097422;28;20035;-86
2024/01/30 07:05:07;;;;;;;8.65;4.95;;;;;;;8.78;100.00;102362.72;5097448;28;20035;-87
2024/01/30 07:07:32;;;;;;;7.80;4.37;;;;;;;8.78;100.00;102365.41;5081383;28;20035;-86
2024/01/30 07:10:05;;;;;;;8.90;5.47;;;;;;;8.82;100.00;102368.66;5096989;28;20049;-87
2024/01/30 07:12:31;;;;;;;6.57;4.47;;;;;;;8.82;100.00;102376.78;5082961;28;20498;-87
2024/01/30 07:14:56;;;;;;;9.80;4.70;;;;;;;8.85;100.00;102371.03;5109304;27;20038;-87
2024/01/30 07:17:21;;;;;;;7.77;4.40;;;;;;;8.87;100.00;102375.25;5100609;27;20039;-88
2024/01/30 07:19:50;;;;;;;7.50;4.27;;;;;;;8.85;100.00;102371.88;5099259;28;20379;-88
2024/01/30 07:22:18;;;;;;;9.48;4.63;;;;;;;8.94;100.00;102378.97;5099606;27;20031;-86
2024/01/30 07:24:49;;;;;;;9.18;4.70;;;;;;;8.95;100.00;102379.84;5096552;28;20108;-86
2024/01/30 07:27:22;;;;;;;8.97;4.60;;;;;;;8.94;100.00;102375.44;5107499;27;20032;-87
2024/01/30 07:29:47;;;;;;;9.43;4.53;;;;;;;8.93;100.00;102381.84;5116904;27;20023;-86
2024/01/30 07:32:13;;;;;;;8.23;4.90;;;;;;;8.90;100.00;102383.06;5118306;27;20023;-87
2024/01/30 07:34:38;;;;;;;9.15;4.40;;;;;;;8.89;100.00;102381.34;5096603;28;20034;-87
2024/01/30 07:37:04;;;;;;;9.03;4.83;;;;;;;8.89;100.00;102394.88;5107939;27;20122;-86
2024/01/30 07:39:29;;;;;;;6.97;4.50;;;;;;;8.91;100.00;102400.13;5083161;27;20382;-87
2024/01/30 07:41:55;;;;;;;7.28;4.63;;;;;;;8.86;100.00;102387.09;5088540;28;20118;-86
2024/01/30 07:44:20;;;;;;;9.27;4.97;;;;;;;8.88;100.00;102382.34;5097396;28;20038;-86
2024/01/30 07:46:46;;;;;;;6.53;4.37;;;;;;;8.90;100.00;102393.88;5081514;28;20196;-86
2024/01/30 07:52:33;;;;;;;8.75;5.00;;;;;;;8.92;100.00;102401.84;5111726;28;20058;-86
2024/01/30 07:54:59;;;;;;;9.25;5.07;;;;;;;8.93;100.00;102401.66;5079513;28;20446;-86
2024/01/30 07:57:24;;;;;;;8.97;4.60;;;;;;;8.94;100.00;102405.22;5114699;28;20023;-86
2024/01/30 07:59:50;;;;;;;8.95;4.90;;;;;;;8.98;100.00;102409.28;5076939;28;20502;-86
2024/01/30 08:05:40;;;;;;;9.07;4.78;;;;;;;9.05;100.00;102422.97;5114594;28;20038;-87
2024/01/30 08:11:31;;;;;;;8.40;4.60;;;;;;;9.13;100.00;102421.13;5114567;28;20486;-87
2024/01/30 08:13:56;;;;;;;8.32;4.55;;;;;;;9.15;100.00;102423.69;5132301;27;20106;-86
2024/01/30 08:16:22;;;;;;;7.87;4.53;;;;;;;9.18;100.00;102422.50;5135403;27;20114;-87
2024/01/30 08:18:47;;;;;;;9.07;4.30;;;;;;;9.28;100.00;102413.19;5099744;27;20037;-87
2024/01/30 08:21:18;;;;;;;11.70;4.50;;;;;;;9.29;100.00;102425.72;5099900;27;20534;-86
2024/01/30 08:23:47;;;;;;;6.15;4.05;;;;;;;9.35;100.00;102412.53;5134832;27;20058;-87
2024/01/30 08:26:14;;;;;;;7.97;4.30;;;;;;;9.39;100.00;102419.28;5116112;27;20139;-87
2024/01/30 08:32:02;;;;;;;8.93;4.47;;;;;;;9.57;100.00;102427.28;5134414;27;20095;-86
2024/01/30 08:34:27;;;;;;;9.02;4.55;;;;;;;9.60;100.00;102426.94;5116389;27;20031;-87
2024/01/30 08:36:56;;;;;;;7.83;3.93;;;;;;;9.65;100.00;102420.00;5082467;28;20130;-87
2024/01/30 08:39:21;;;;;;;7.15;4.30;;;;;;;9.71;100.00;102423.00;5116413;28;20028;-86
2024/01/30 08:41:50;;;;;;;9.45;4.68;;;;;;;9.72;100.00;102427.44;5099475;27;20047;-87
2024/01/30 08:44:16;;;;;;;8.10;4.60;;;;;;;9.78;100.00;102410.47;5099128;28;20126;-87
2024/01/30 08:46:45;;;;;;;8.15;4.65;;;;;;;9.80;100.00;102411.13;5134312;28;20107;-86
2024/01/30 08:49:13;;;;;;;7.32;4.25;;;;;;;9.87;100.00;102424.88;5115901;28;20028;-87
2024/01/30 08:51:41;;;;;;;7.73;4.60;;;;;;;9.87;100.00;102416.72;5134265;28;20123;-87
2024/01/30 08:54:07;;;;;;;9.07;4.68;;;;;;;9.93;100.00;102418.75;5135107;28;20046;-87
2024/01/30 08:56:32;;;;;;;9.00;4.65;;;;;;;9.97;100.00;102422.81;5115678;28;20076;-87
2024/01/30 08:58:58;;;;;;;11.67;5.87;;;;;;;10.05;100.00;102414.63;5098970;28;20041;-86
2024/01/30 09:04:45;;;;;;;11.65;5.03;;;;;;;10.12;100.00;102421.06;5134779;28;20030;-87
2024/01/30 09:10:34;;;;;;;10.45;4.82;;;;;;;10.23;100.00;102430.72;5134261;28;20039;-87
2024/01/30 09:13:00;;;;;;;8.45;4.90;;;;;;;10.29;100.00;102421.00;5116436;28;20438;-87
2024/01/30 09:15:25;;;;;;;9.30;5.17;;;;;;;10.32;100.00;102421.53;5099037;28;20051;-87
2024/01/30 09:17:51;;;;;;;6.65;4.28;;;;;;;10.40;100.00;102427.97;5098760;28;20038;-87
2024/01/30 09:20:24;;;;;;;9.93;4.80;;;;;;;10.45;100.00;102437.28;5134310;28;20037;-88
2024/01/30 09:22:49;;;;;;;9.50;5.30;;;;;;;10.44;100.00;102435.59;5100528;28;20031;-88
2024/01/30 09:43:14;;;;;;;8.77;4.30;;;;;;;10.84;100.00;102452.69;5133480;27;20055;-88
2024/01/30 09:52:28;;;;;;;8.65;4.65;;;;;;;10.91;100.00;102466.41;5136952;27;20059;-86
2024/01/30 09:54:54;;;;;;;8.30;4.40;;;;;;;10.91;100.00;102462.84;5086014;27;20046;-85
2024/01/30 09:57:22;;;;;;;10.38;4.60;;;;;;;10.93;100.00;102458.94;5101658;27;20043;-88
2024/01/30 09:59:47;;;;;;;11.90;4.55;;;;;;;10.95;100.00;102472.31;5120172;27;20046;-88
2024/01/30 10:09:05;;;;;;;9.40;4.85;;;;;;;10.87;100.00;102471.34;5136592;27;20487;-86
2024/01/30 10:11:30;;;;;;;11.73;5.13;;;;;;;10.82;100.00;102471.03;5137483;27;20035;-86
2024/01/30 10:13:56;;;;;;;8.60;4.80;;;;;;;10.84;100.00;102468.97;5119283;27;20114;-86
2024/01/30 10:16:24;;;;;;;9.87;4.97;;;;;;;10.84;100.00;102471.69;5118864;27;20123;-85
2024/01/30 10:18:50;;;;;;;10.00;5.10;;;;;;;10.92;100.00;102472.69;5086834;27;20122;-85
2024/01/30 10:21:16;;;;;;;12.17;5.80;;;;;;;10.88;100.00;102483.06;5101905;27;20035;-87
2024/01/30 10:23:46;;;;;;;6.93;4.18;;;;;;;10.98;100.00;102470.09;5102476;27;20137;-87
2024/01/30 10:26:11;;;;;;;14.98;5.32;;;;;;;11.01;100.00;102480.63;5119050;27;20484;-87
2024/01/30 10:28:37;;;;;;;12.53;5.13;;;;;;;11.04;100.00;102482.09;5118896;27;20110;-86
2024/01/30 10:31:05;;;;;;;8.33;4.63;;;;;;;11.14;100.00;102492.75;5118703;27;20023;-87
2024/01/30 10:33:31;;;;;;;9.60;4.88;;;;;;;11.14;100.00;102493.59;5117611;27;20176;-87
2024/01/30 10:39:22;;;;;;;12.43;5.03;;;;;;;11.22;100.00;102490.00;5136965;27;20041;-87
2024/01/30 10:45:15;;;;;;;12.07;5.13;;;;;;;11.22;100.00;102490.00;5136784;27;20038;-87
2024/01/30 10:51:04;;;;;;;21.15;5.80;;;;;;;11.30;100.00;102486.38;5136484;27;20122;-87
2024/01/30 10:57:38;;;;;;;14.73;5.63;;;;;;;11.32;100.00;102479.72;5136045;27;20463;-87
2024/01/30 11:03:31;;;;;;;11.57;5.68;;;;;;;11.29;100.00;102488.25;5136129;27;20078;-86
2024/01/30 11:10:08;;;;;;;14.10;5.82;;;;;;;11.14;100.00;102493.59;5136453;27;20394;-86
2024/01/30 11:16:13;;;;;;;12.27;6.07;;;;;;;11.04;100.00;102504.72;5136039;27;20042;-87
2024/01/30 11:22:07;;;;;;;11.40;6.22;;;;;;;11.04;100.00;102495.69;5135717;27;20034;-86
2024/01/30 11:24:42;;;;;;;11.57;5.82;;;;;;;11.11;100.00;102506.72;5101255;27;20031;-87
2024/01/30 11:27:13;;;;;;;11.07;5.95;;;;;;;11.15;100.00;102505.34;5117579;27;20114;-87
2024/01/30 11:29:40;;;;;;;11.70;6.00;;;;;;;11.31;100.00;102491.63;5100574;27;20120;-87
2024/01/30 11:39:04;;;;;;;12.30;4.60;;;;;;;11.76;100.00;102489.06;5073028;28;20116;-87
2024/01/30 11:44:56;;;;;;;10.03;4.10;;;;;;;11.91;100.00;102487.25;5072413;28;20126;-86
2024/01/30 11:47:25;;;;;;;8.73;4.10;;;;;;;12.03;100.00;102498.56;5056065;28;20044;-87
2024/01/30 11:49:50;;;;;;;8.98;4.25;;;;;;;11.85;100.00;102504.28;5038728;28;20098;-87
2024/01/30 11:52:16;;;;;;;11.27;4.07;;;;;;;11.75;100.00;102493.69;5055261;28;20032;-87
2024/01/30 11:54:44;;;;;;;4.80;3.25;;;;;;;11.75;100.00;102492.81;5038728;28;20048;-87
2024/01/30 11:57:09;;;;;;;9.13;4.32;;;;;;;11.74;100.00;102497.41;5038136;28;20052;-87
2024/01/30 12:00:30;;;;;;;10.10;4.57;;;;;;;11.78;100.00;102503.34;5056111;28;20033;-87
2024/01/30 12:03:06;;;;;;;12.25;3.90;;;;;;;11.89;100.00;102486.59;5015254;28;20510;-87
2024/01/30 12:09:01;;;;;;;9.23;3.83;;;;;;;12.09;100.00;102499.69;5051894;28;20393;-87
2024/01/30 12:14:51;;;;;;;10.70;3.40;;;;;;;12.34;100.00;102510.31;5051633;28;20119;-87
2024/01/30 12:21:00;;;;;;;9.45;2.92;;;;;;;12.05;100.00;102512.81;5134839;27;20042;-87
2024/01/30 12:27:15;;;;;;;3.95;1.60;;;;;;;12.67;92.28;102534.44;5134984;27;20076;-87
2024/01/30 12:33:18;;;;;;;3.35;1.10;;;;;;;12.38;86.81;102534.25;5135033;27;20108;-87
2024/01/30 12:35:47;;;;;;;5.82;1.00;;;;;;;13.26;82.52;102558.91;5116300;27;20062;-86
2024/01/30 12:38:14;;;;;;;2.65;0.95;;;;;;;15.39;69.37;102531.50;5116198;27;20130;-86
2024/01/30 12:44:09;;;;;;;1.73;0.90;;;;;;;18.56;53.90;102523.47;5134819;27;20034;-87
2024/01/30 12:50:09;;;;;;;2.75;0.80;;;;;;;14.56;59.69;102540.56;5135027;28;20041;-86
2024/01/30 13:01:13;;;;;;;5.53;1.13;;;;;;;12.34;75.21;102553.88;5132868;27;20057;-87
2024/01/30 13:03:39;;;;;;;3.30;0.80;;;;;;;12.06;75.87;102549.03;5115724;28;20043;-91
2024/01/30 13:06:04;;;;;;;4.93;1.10;;;;;;;11.87;77.69;102553.06;5115813;28;20046;-91
2024/01/30 13:08:30;;;;;;;2.38;0.70;;;;;;;11.79;77.99;102559.41;5115953;28;20031;-92
2024/01/30 13:10:56;;;;;;;3.77;0.80;;;;;;;11.74;77.71;102561.84;5115762;28;20352;-87
2024/01/30 13:13:23;;;;;;;3.72;0.70;;;;;;;11.76;78.86;102565.22;5115606;28;20050;-87
2024/01/30 13:15:49;;;;;;;2.45;0.85;;;;;;;11.81;78.98;102553.78;5134294;28;20034;-87
2024/01/30 13:18:14;;;;;;;5.68;1.00;;;;;;;11.75;80.89;102558.94;5118283;27;20035;-87
2024/01/30 13:20:40;;;;;;;3.73;0.90;;;;;;;11.55;81.54;102566.72;5120055;27;20387;-87
2024/01/30 13:23:11;;;;;;;2.03;0.73;;;;;;;11.32;82.41;102579.44;5103128;27;20023;-87
2024/01/30 13:25:39;;;;;;;3.95;0.80;;;;;;;11.26;82.91;102569.28;5138114;27;20032;-87
2024/01/30 13:28:05;;;;;;;6.05;0.82;;;;;;;11.19;83.30;102586.28;5138597;27;20023;-87